createdAt,value
2019-03-30T00:01:21.334Z,6.37
2019-03-30T00:03:52.006Z,6.38
2019-03-30T00:06:22.656Z,6.35
2019-03-30T00:08:53.614Z,6.28
2019-03-30T00:11:24.638Z,6.20
2019-03-30T00:13:56.792Z,6.22
2019-03-30T00:16:27.790Z,6.17
2019-03-30T00:18:58.468Z,6.11
2019-03-30T00:21:29.227Z,6.11
2019-03-30T00:24:00.558Z,6.20
2019-03-30T00:26:33.202Z,6.10
2019-03-30T00:29:04.437Z,6.09
2019-03-30T00:31:35.437Z,6.08
2019-03-30T00:34:06.864Z,5.96
2019-03-30T00:36:38.582Z,5.94
2019-03-30T00:39:10.042Z,5.89
2019-03-30T00:41:45.026Z,5.90
2019-03-30T00:44:15.962Z,5.84
2019-03-30T00:46:47.853Z,5.81
2019-03-30T00:49:19.023Z,5.80
2019-03-30T00:51:50.081Z,5.72
2019-03-30T00:54:20.770Z,5.73
2019-03-30T00:56:51.919Z,5.76
2019-03-30T00:59:23.149Z,5.64
2019-03-30T01:01:54.933Z,5.65
2019-03-30T01:04:25.635Z,5.69
2019-03-30T01:06:56.822Z,5.69
2019-03-30T01:09:27.506Z,5.64
2019-03-30T01:12:01.335Z,5.62
2019-03-30T01:14:32.867Z,5.61
2019-03-30T01:17:04.731Z,5.63
2019-03-30T01:19:35.680Z,5.59
2019-03-30T01:22:06.724Z,5.57
2019-03-30T01:24:37.731Z,5.66
2019-03-30T01:27:08.922Z,5.63
2019-03-30T01:29:39.933Z,5.61
2019-03-30T01:32:11.545Z,5.58
2019-03-30T01:34:42.529Z,5.55
2019-03-30T01:37:13.201Z,5.65
2019-03-30T01:39:44.300Z,5.64
2019-03-30T01:42:15.109Z,5.57
2019-03-30T01:44:45.797Z,5.53
2019-03-30T01:47:17.032Z,5.47
2019-03-30T01:49:48.331Z,5.51
2019-03-30T01:52:19.098Z,5.51
2019-03-30T01:54:50.784Z,5.50
2019-03-30T01:57:21.492Z,5.48
2019-03-30T01:59:52.307Z,5.44
2019-03-30T02:02:24.460Z,5.41
2019-03-30T02:04:55.794Z,5.37
2019-03-30T02:07:29.065Z,5.38
2019-03-30T02:10:00.369Z,5.31
2019-03-30T02:12:31.208Z,5.37
2019-03-30T02:15:02.238Z,5.32
2019-03-30T02:17:33.564Z,5.30
2019-03-30T02:20:09.253Z,5.24
2019-03-30T02:22:39.910Z,5.17
2019-03-30T02:25:11.140Z,5.20
2019-03-30T02:27:42.152Z,5.16
2019-03-30T02:30:13.105Z,5.19
2019-03-30T02:32:44.986Z,5.17
2019-03-30T02:35:16.223Z,5.18
2019-03-30T02:37:46.973Z,5.12
2019-03-30T02:40:17.695Z,5.07
2019-03-30T02:42:48.805Z,5.07
2019-03-30T02:45:19.492Z,5.03
2019-03-30T02:47:50.144Z,4.97
2019-03-30T02:50:20.840Z,5.00
2019-03-30T02:52:51.889Z,4.98
2019-03-30T02:55:22.824Z,4.90
2019-03-30T02:57:54.225Z,4.96
2019-03-30T03:00:24.878Z,4.97
2019-03-30T03:02:56.141Z,4.91
2019-03-30T03:05:28.474Z,4.79
2019-03-30T03:08:00.222Z,4.69
2019-03-30T03:10:30.966Z,4.62
2019-03-30T03:13:03.557Z,4.65
2019-03-30T03:15:35.186Z,4.57
2019-03-30T03:18:06.098Z,4.59
2019-03-30T03:20:36.970Z,4.60
2019-03-30T03:23:07.635Z,4.61
2019-03-30T03:25:38.589Z,4.64
2019-03-30T03:28:09.878Z,4.61
2019-03-30T03:30:40.714Z,4.61
2019-03-30T03:33:11.522Z,4.57
2019-03-30T03:35:42.366Z,4.58
2019-03-30T03:38:13.331Z,4.54
2019-03-30T03:40:43.993Z,4.57
2019-03-30T03:43:16.551Z,4.51
2019-03-30T03:45:47.227Z,4.51
2019-03-30T03:48:18.106Z,4.49
2019-03-30T03:50:53.683Z,4.50
2019-03-30T03:53:24.700Z,4.52
2019-03-30T03:55:56.828Z,4.48
2019-03-30T03:58:30.959Z,4.45
2019-03-30T04:01:04.048Z,4.45
2019-03-30T04:03:35.732Z,4.39
2019-03-30T04:06:07.870Z,4.30
2019-03-30T04:08:41.221Z,4.24
2019-03-30T04:11:14.804Z,4.26
2019-03-30T04:13:48.298Z,4.15
2019-03-30T04:16:19.956Z,4.14
2019-03-30T04:18:50.617Z,4.12
2019-03-30T04:21:21.770Z,4.17
2019-03-30T04:23:54.521Z,4.20
2019-03-30T04:26:25.951Z,4.19
2019-03-30T04:28:57.004Z,4.19
2019-03-30T04:31:28.058Z,4.16
2019-03-30T04:33:58.734Z,4.15
2019-03-30T04:36:29.419Z,4.12
2019-03-30T04:39:00.483Z,4.13
2019-03-30T04:41:31.215Z,4.11
2019-03-30T04:44:01.990Z,4.09
2019-03-30T04:46:32.850Z,4.12
2019-03-30T04:49:03.567Z,4.14
2019-03-30T04:51:34.395Z,4.12
2019-03-30T04:54:05.316Z,4.17
2019-03-30T04:56:36.250Z,4.21
2019-03-30T04:59:06.919Z,4.20
2019-03-30T05:01:37.605Z,4.32
2019-03-30T05:04:08.347Z,4.31
2019-03-30T05:06:39.490Z,4.32
2019-03-30T05:09:10.212Z,4.44
2019-03-30T05:11:41.292Z,4.51
2019-03-30T05:14:12.068Z,4.73
2019-03-30T05:16:43.024Z,4.67
2019-03-30T05:19:13.806Z,4.69
2019-03-30T05:21:45.311Z,4.75
2019-03-30T05:24:16.759Z,4.85
2019-03-30T05:26:47.677Z,4.85
2019-03-30T05:29:18.368Z,4.89
2019-03-30T05:31:49.412Z,4.99
2019-03-30T05:34:20.389Z,5.04
2019-03-30T05:36:51.059Z,5.05
2019-03-30T05:39:21.970Z,5.09
2019-03-30T05:41:52.889Z,5.06
2019-03-30T05:44:23.686Z,5.06
2019-03-30T05:46:57.448Z,5.08
2019-03-30T05:49:28.375Z,5.17
2019-03-30T05:51:59.581Z,5.25
2019-03-30T05:54:30.320Z,5.52
2019-03-30T05:57:01.700Z,5.88
2019-03-30T05:59:32.398Z,6.26
2019-03-30T06:02:03.770Z,6.48
2019-03-30T06:04:34.444Z,6.80
2019-03-30T06:07:06.930Z,6.71
2019-03-30T06:09:39.403Z,6.99
2019-03-30T06:12:10.067Z,7.26
2019-03-30T06:14:41.055Z,7.17
2019-03-30T06:17:11.715Z,7.10
2019-03-30T06:19:42.382Z,7.14
2019-03-30T06:22:13.062Z,7.20
2019-03-30T06:24:44.130Z,6.98
2019-03-30T06:27:14.885Z,7.08
2019-03-30T06:29:48.850Z,6.80
2019-03-30T06:32:19.806Z,7.02
2019-03-30T06:34:50.638Z,7.05
2019-03-30T06:37:22.730Z,7.22
2019-03-30T06:39:53.388Z,7.19
2019-03-30T06:42:24.420Z,7.24
2019-03-30T06:44:55.208Z,7.27
2019-03-30T06:47:26.723Z,7.31
2019-03-30T06:49:58.525Z,7.36
2019-03-30T06:52:29.556Z,7.35
2019-03-30T06:55:02.099Z,7.38
2019-03-30T06:57:33.058Z,7.63
2019-03-30T07:00:04.195Z,7.63
2019-03-30T07:02:35.418Z,7.80
2019-03-30T07:05:09.299Z,7.78
2019-03-30T07:07:42.246Z,7.87
2019-03-30T07:10:14.146Z,8.01
2019-03-30T07:12:46.354Z,8.05
2019-03-30T07:15:17.029Z,8.23
2019-03-30T07:17:48.334Z,8.44
2019-03-30T07:20:30.003Z,8.59
2019-03-30T07:23:11.676Z,8.62
2019-03-30T07:25:33.867Z,8.73
2019-03-30T07:28:04.540Z,8.89
2019-03-30T07:30:35.635Z,8.97
2019-03-30T07:33:08.253Z,9.08
2019-03-30T07:35:39.544Z,9.05
2019-03-30T07:38:10.350Z,9.17
2019-03-30T07:40:41.461Z,9.38
2019-03-30T07:43:13.822Z,9.39
2019-03-30T07:45:45.167Z,9.35
2019-03-30T07:48:16.121Z,9.57
2019-03-30T07:50:47.150Z,9.75
2019-03-30T07:53:26.289Z,9.76
2019-03-30T07:55:51.454Z,9.92
2019-03-30T07:58:22.387Z,10.00
2019-03-30T08:00:53.108Z,10.11
2019-03-30T08:03:24.076Z,10.15
2019-03-30T08:05:54.879Z,10.42
2019-03-30T08:08:25.979Z,10.51
2019-03-30T08:10:56.971Z,10.63
2019-03-30T08:13:27.959Z,10.78
2019-03-30T08:15:58.699Z,10.93
2019-03-30T08:18:29.838Z,11.07
2019-03-30T08:21:00.634Z,11.21
2019-03-30T08:23:40.126Z,11.24
2019-03-30T08:26:04.936Z,11.35
2019-03-30T08:28:36.049Z,11.26
2019-03-30T08:31:06.771Z,11.21
2019-03-30T08:33:38.376Z,11.31
2019-03-30T08:36:10.358Z,11.53
2019-03-30T08:38:41.043Z,11.56
2019-03-30T08:41:11.705Z,11.73
2019-03-30T08:43:42.436Z,12.02
2019-03-30T08:46:13.097Z,12.50
2019-03-30T08:48:43.815Z,12.98
2019-03-30T08:51:14.523Z,13.41
2019-03-30T08:53:54.492Z,14.04
2019-03-30T08:56:17.945Z,14.79
2019-03-30T08:58:48.612Z,15.21
2019-03-30T09:01:19.314Z,15.71
2019-03-30T09:03:51.206Z,16.43
2019-03-30T09:06:22.168Z,17.15
2019-03-30T09:08:52.860Z,17.12
2019-03-30T09:11:23.740Z,17.07
2019-03-30T09:13:54.673Z,17.27
2019-03-30T09:16:25.599Z,17.79
2019-03-30T09:18:56.668Z,18.59
2019-03-30T09:21:27.314Z,19.38
2019-03-30T09:24:09.479Z,19.52
2019-03-30T09:26:30.647Z,19.15
2019-03-30T09:29:01.376Z,18.28
2019-03-30T09:31:32.299Z,18.94
2019-03-30T09:34:03.649Z,19.63
2019-03-30T09:36:34.478Z,19.94
2019-03-30T09:39:07.856Z,20.30
2019-03-30T09:41:39.028Z,20.39
2019-03-30T09:44:09.706Z,19.86
2019-03-30T09:46:40.378Z,19.87
2019-03-30T09:49:11.083Z,19.86
2019-03-30T09:51:41.839Z,20.59
2019-03-30T09:54:23.747Z,21.12
2019-03-30T09:56:46.033Z,21.35
2019-03-30T09:59:17.006Z,21.31
2019-03-30T10:01:48.667Z,22.14
2019-03-30T10:04:19.604Z,22.59
2019-03-30T10:06:50.286Z,22.80
2019-03-30T10:09:21.370Z,22.46
2019-03-30T10:11:52.055Z,22.34
2019-03-30T10:14:23.054Z,22.07
2019-03-30T10:16:53.807Z,22.12
2019-03-30T10:19:27.797Z,21.80
2019-03-30T10:21:58.697Z,21.14
2019-03-30T10:24:37.981Z,21.36
2019-03-30T10:27:03.446Z,21.98
2019-03-30T10:29:34.414Z,21.84
2019-03-30T10:32:06.309Z,21.45
2019-03-30T10:34:39.738Z,22.68
2019-03-30T10:37:11.814Z,20.98
2019-03-30T10:39:42.578Z,22.14
2019-03-30T10:42:13.327Z,22.42
2019-03-30T10:44:44.042Z,20.18
2019-03-30T10:47:14.986Z,19.67
2019-03-30T10:49:46.848Z,20.36
2019-03-30T10:52:17.602Z,21.06
2019-03-30T10:54:52.803Z,20.90
2019-03-30T10:57:21.812Z,20.15
2019-03-30T10:59:52.991Z,20.93
2019-03-30T11:02:24.001Z,22.03
2019-03-30T11:04:57.896Z,20.78
2019-03-30T11:07:29.026Z,20.08
2019-03-30T11:10:03.254Z,21.22
2019-03-30T11:12:33.934Z,21.28
2019-03-30T11:15:07.092Z,21.62
2019-03-30T11:17:38.702Z,21.29
2019-03-30T11:20:10.049Z,20.38
2019-03-30T11:22:40.743Z,19.93
2019-03-30T11:25:11.535Z,20.74
2019-03-30T11:27:42.278Z,20.60
2019-03-30T11:30:13.539Z,21.32
2019-03-30T11:32:44.695Z,20.30
2019-03-30T11:35:17.313Z,19.79
2019-03-30T11:37:48.589Z,20.80
2019-03-30T11:40:19.377Z,20.94
2019-03-30T11:42:52.172Z,21.67
2019-03-30T11:45:22.865Z,22.34
2019-03-30T11:47:53.992Z,22.09
2019-03-30T11:50:24.650Z,20.69
2019-03-30T11:52:55.431Z,20.59
2019-03-30T11:55:26.523Z,20.87
2019-03-30T11:57:58.535Z,20.96
2019-03-30T12:00:29.564Z,20.98
2019-03-30T12:03:00.680Z,21.22
2019-03-30T12:05:31.790Z,21.97
2019-03-30T12:08:02.815Z,22.14
2019-03-30T12:10:33.500Z,20.11
2019-03-30T12:13:04.367Z,21.36
2019-03-30T12:15:35.413Z,20.94
2019-03-30T12:18:06.381Z,21.55
2019-03-30T12:20:37.342Z,22.02
2019-03-30T12:23:08.355Z,22.09
2019-03-30T12:25:39.024Z,21.88
2019-03-30T12:28:09.981Z,21.70
2019-03-30T12:30:40.902Z,21.29
2019-03-30T12:33:11.611Z,20.50
2019-03-30T12:35:42.526Z,20.42
2019-03-30T12:38:13.452Z,20.17
2019-03-30T12:40:44.356Z,19.91
2019-03-30T12:43:15.032Z,20.19
2019-03-30T12:45:45.965Z,20.12
2019-03-30T12:48:17.638Z,19.70
2019-03-30T12:50:48.312Z,19.86
2019-03-30T12:53:19.265Z,19.96
2019-03-30T12:55:49.959Z,19.89
2019-03-30T12:58:20.653Z,19.65
2019-03-30T13:00:51.359Z,19.69
2019-03-30T13:03:22.359Z,19.54
2019-03-30T13:05:53.316Z,19.49
2019-03-30T13:08:24.302Z,19.09
2019-03-30T13:10:55.266Z,18.84
2019-03-30T13:13:26.311Z,18.86
2019-03-30T13:15:57.234Z,19.10
2019-03-30T13:18:28.193Z,19.29
2019-03-30T13:20:59.335Z,19.34
2019-03-30T13:23:30.279Z,19.24
2019-03-30T13:26:04.057Z,19.19
2019-03-30T13:28:33.681Z,19.26
2019-03-30T13:31:04.462Z,19.47
2019-03-30T13:33:35.464Z,19.51
2019-03-30T13:36:10.682Z,19.43
2019-03-30T13:38:41.164Z,19.59
2019-03-30T13:41:14.080Z,19.39
2019-03-30T13:43:44.228Z,19.64
2019-03-30T13:46:14.925Z,19.60
2019-03-30T13:48:45.998Z,19.75
2019-03-30T13:51:16.976Z,19.78
2019-03-30T13:53:48.035Z,19.80
2019-03-30T13:56:22.518Z,19.82
2019-03-30T13:58:53.557Z,19.80
2019-03-30T14:01:24.236Z,20.01
2019-03-30T14:03:54.926Z,20.02
2019-03-30T14:06:25.801Z,19.83
2019-03-30T14:08:59.311Z,19.80
2019-03-30T14:11:32.787Z,19.96
2019-03-30T14:14:03.924Z,20.00
2019-03-30T14:16:35.664Z,20.14
2019-03-30T14:19:06.787Z,20.19
2019-03-30T14:21:37.457Z,20.15
2019-03-30T14:24:08.154Z,20.23
2019-03-30T14:26:40.158Z,20.15
2019-03-30T14:29:11.181Z,20.30
2019-03-30T14:31:42.012Z,20.31
2019-03-30T14:34:12.978Z,20.40
2019-03-30T14:36:43.987Z,20.21
2019-03-30T14:39:15.121Z,19.56
2019-03-30T14:41:46.958Z,19.76
2019-03-30T14:44:17.932Z,19.87
2019-03-30T14:46:48.633Z,20.11
2019-03-30T14:49:21.151Z,20.11
2019-03-30T14:51:52.084Z,20.14
2019-03-30T14:54:24.400Z,20.18
2019-03-30T14:56:55.890Z,20.35
2019-03-30T14:59:26.589Z,20.36
2019-03-30T15:01:57.228Z,20.36
2019-03-30T15:04:28.248Z,20.40
2019-03-30T15:06:58.961Z,20.45
2019-03-30T15:09:30.732Z,20.29
2019-03-30T15:12:01.425Z,20.08
2019-03-30T15:14:32.238Z,19.90
2019-03-30T15:17:02.893Z,19.96
2019-03-30T15:19:33.743Z,20.05
2019-03-30T15:22:04.939Z,19.91
2019-03-30T15:24:36.017Z,19.98
2019-03-30T15:27:06.689Z,19.98
2019-03-30T15:29:37.701Z,19.98
2019-03-30T15:32:08.411Z,19.91
2019-03-30T15:34:39.175Z,19.81
2019-03-30T15:37:10.058Z,19.60
2019-03-30T15:39:41.275Z,19.58
2019-03-30T15:42:12.039Z,19.59
2019-03-30T15:44:42.729Z,19.59
2019-03-30T15:47:13.643Z,19.65
2019-03-30T15:49:44.683Z,19.58
2019-03-30T15:52:15.673Z,19.72
2019-03-30T15:54:46.661Z,19.55
2019-03-30T15:57:17.707Z,19.42
2019-03-30T15:59:48.375Z,19.42
2019-03-30T16:02:19.310Z,19.26
2019-03-30T16:04:50.228Z,19.15
2019-03-30T16:07:20.916Z,19.12
2019-03-30T16:09:51.914Z,19.07
2019-03-30T16:12:22.870Z,19.07
2019-03-30T16:14:53.847Z,19.02
2019-03-30T16:17:24.914Z,19.02
2019-03-30T16:19:55.842Z,18.98
2019-03-30T16:22:26.944Z,18.90
2019-03-30T16:24:57.940Z,18.77
2019-03-30T16:27:29.616Z,18.66
2019-03-30T16:30:00.584Z,18.70
2019-03-30T16:32:31.603Z,18.62
2019-03-30T16:35:02.380Z,18.56
2019-03-30T16:37:33.047Z,18.44
2019-03-30T16:40:06.316Z,18.33
2019-03-30T16:42:38.176Z,18.23
2019-03-30T16:45:09.381Z,18.34
2019-03-30T16:47:40.377Z,18.27
2019-03-30T16:50:11.747Z,18.16
2019-03-30T16:52:42.442Z,18.08
2019-03-30T16:55:13.739Z,18.06
2019-03-30T16:57:44.780Z,17.91
2019-03-30T17:00:16.429Z,17.82
2019-03-30T17:02:47.439Z,17.87
2019-03-30T17:05:18.151Z,17.69
2019-03-30T17:07:49.116Z,17.66
2019-03-30T17:10:20.564Z,17.47
2019-03-30T17:12:51.602Z,17.43
2019-03-30T17:15:22.288Z,17.36
2019-03-30T17:17:53.241Z,17.31
2019-03-30T17:20:24.208Z,17.29
2019-03-30T17:22:58.599Z,17.20
2019-03-30T17:25:27.771Z,17.10
2019-03-30T17:27:59.113Z,17.07
2019-03-30T17:30:31.128Z,16.92
2019-03-30T17:33:02.072Z,16.83
2019-03-30T17:35:33.013Z,16.83
2019-03-30T17:38:04.060Z,16.77
2019-03-30T17:40:34.740Z,16.62
2019-03-30T17:43:05.576Z,16.56
2019-03-30T17:45:36.272Z,16.41
2019-03-30T17:48:07.322Z,16.37
2019-03-30T17:50:38.453Z,16.27
2019-03-30T17:53:09.674Z,16.21
2019-03-30T17:55:40.457Z,16.12
2019-03-30T17:58:13.288Z,16.07
2019-03-30T18:00:44.364Z,16.01
2019-03-30T18:03:15.294Z,15.93
2019-03-30T18:05:46.246Z,15.86
2019-03-30T18:08:17.405Z,15.82
2019-03-30T18:10:48.106Z,15.74
2019-03-30T18:13:18.779Z,15.69
2019-03-30T18:15:49.540Z,15.63
2019-03-30T18:18:20.511Z,15.56
2019-03-30T18:20:55.108Z,15.50
2019-03-30T18:23:24.722Z,15.44
2019-03-30T18:25:56.368Z,15.38
2019-03-30T18:28:27.737Z,15.32
2019-03-30T18:30:58.996Z,15.25
2019-03-30T18:33:30.452Z,15.18
2019-03-30T18:36:01.806Z,15.13
2019-03-30T18:38:36.756Z,15.06
2019-03-30T18:41:10.306Z,15.00
2019-03-30T18:43:41.363Z,14.98
2019-03-30T18:46:12.767Z,14.86
2019-03-30T18:48:43.916Z,14.77
2019-03-30T18:51:15.521Z,14.69
2019-03-30T18:53:47.697Z,14.65
2019-03-30T18:56:20.460Z,14.59
2019-03-30T18:58:51.550Z,14.52
2019-03-30T19:01:23.072Z,14.43
2019-03-30T19:03:54.521Z,14.34
2019-03-30T19:06:25.254Z,14.33
2019-03-30T19:08:56.309Z,14.23
2019-03-30T19:11:27.087Z,14.14
2019-03-30T19:13:58.022Z,14.08
2019-03-30T19:16:29.148Z,13.97
2019-03-30T19:19:00.144Z,13.91
2019-03-30T19:21:30.826Z,13.84
2019-03-30T19:24:01.827Z,13.79
2019-03-30T19:26:32.747Z,13.70
2019-03-30T19:29:03.700Z,13.69
2019-03-30T19:31:34.619Z,13.57
2019-03-30T19:34:05.579Z,13.58
2019-03-30T19:36:36.525Z,13.53
2019-03-30T19:39:10.030Z,13.56
2019-03-30T19:41:40.985Z,13.42
2019-03-30T19:44:12.381Z,13.38
2019-03-30T19:46:43.654Z,13.30
2019-03-30T19:49:14.692Z,13.21
2019-03-30T19:51:45.382Z,13.13
2019-03-30T19:54:16.103Z,13.05
2019-03-30T19:56:47.102Z,12.94
2019-03-30T19:59:17.764Z,12.90
2019-03-30T20:01:48.864Z,12.88
2019-03-30T20:04:19.903Z,12.85
2019-03-30T20:06:51.822Z,12.81
2019-03-30T20:09:22.861Z,12.72
2019-03-30T20:11:53.846Z,12.63
2019-03-30T20:14:24.517Z,12.57
2019-03-30T20:16:55.476Z,12.50
2019-03-30T20:19:26.161Z,12.47
2019-03-30T20:21:57.583Z,12.43
2019-03-30T20:24:28.715Z,12.43
2019-03-30T20:27:00.195Z,12.32
2019-03-30T20:29:30.873Z,12.31
2019-03-30T20:32:01.838Z,12.26
2019-03-30T20:34:33.945Z,12.20
2019-03-30T20:37:04.721Z,12.10
2019-03-30T20:39:35.388Z,12.04
2019-03-30T20:42:06.317Z,11.97
2019-03-30T20:44:37.287Z,12.01
2019-03-30T20:47:08.322Z,11.99
2019-03-30T20:49:39.392Z,11.88
2019-03-30T20:52:10.064Z,11.86
2019-03-30T20:54:41.038Z,11.78
2019-03-30T20:57:11.780Z,11.83
2019-03-30T20:59:42.507Z,11.81
2019-03-30T21:02:13.795Z,11.73
2019-03-30T21:04:44.481Z,11.69
2019-03-30T21:07:15.256Z,11.67
2019-03-30T21:09:46.265Z,11.56
2019-03-30T21:12:17.036Z,11.51
2019-03-30T21:14:47.962Z,11.52
2019-03-30T21:17:19.130Z,11.49
2019-03-30T21:19:50.205Z,11.48
2019-03-30T21:22:21.032Z,11.40
2019-03-30T21:24:53.079Z,11.47
2019-03-30T21:27:23.828Z,11.32
2019-03-30T21:29:55.295Z,11.38
2019-03-30T21:32:26.063Z,11.31
2019-03-30T21:34:57.044Z,11.27
2019-03-30T21:37:28.139Z,11.17
2019-03-30T21:39:59.079Z,11.21
2019-03-30T21:42:30.014Z,11.18
2019-03-30T21:45:00.830Z,11.16
2019-03-30T21:47:31.702Z,11.12
2019-03-30T21:50:02.858Z,11.09
2019-03-30T21:52:33.803Z,11.12
2019-03-30T21:55:05.380Z,11.08
2019-03-30T21:57:36.180Z,11.07
2019-03-30T22:00:12.520Z,11.07
2019-03-30T22:02:43.687Z,10.94
2019-03-30T22:05:14.683Z,10.72
2019-03-30T22:07:45.790Z,10.70
2019-03-30T22:10:21.401Z,10.65
2019-03-30T22:12:52.364Z,10.65
2019-03-30T22:15:29.202Z,10.66
2019-03-30T22:18:00.262Z,10.66
2019-03-30T22:20:31.056Z,10.64
2019-03-30T22:23:01.770Z,10.53
2019-03-30T22:25:32.916Z,10.57
2019-03-30T22:28:04.358Z,10.45
2019-03-30T22:30:36.211Z,10.49
2019-03-30T22:33:08.267Z,10.35
2019-03-30T22:35:40.412Z,10.22
2019-03-30T22:38:11.089Z,10.37
2019-03-30T22:40:41.826Z,10.27
2019-03-30T22:43:13.085Z,10.15
2019-03-30T22:45:45.516Z,10.12
2019-03-30T22:48:17.266Z,10.11
2019-03-30T22:50:48.288Z,10.02
2019-03-30T22:53:19.223Z,9.91
2019-03-30T22:55:51.715Z,9.89
2019-03-30T22:58:22.835Z,9.92
2019-03-30T23:01:10.066Z,9.91
2019-03-30T23:03:43.014Z,9.89
2019-03-30T23:06:14.216Z,9.86
2019-03-30T23:08:44.904Z,9.84
2019-03-30T23:11:15.546Z,9.83
2019-03-30T23:13:48.083Z,9.72
2019-03-30T23:16:18.750Z,9.75
2019-03-30T23:18:50.834Z,9.82
2019-03-30T23:21:22.119Z,9.73
2019-03-30T23:23:53.834Z,9.63
2019-03-30T23:26:25.121Z,9.63
2019-03-30T23:28:59.301Z,9.63
2019-03-30T23:31:31.198Z,9.58
2019-03-30T23:34:02.045Z,9.53
2019-03-30T23:36:32.952Z,9.48
2019-03-30T23:39:06.028Z,9.46
2019-03-30T23:41:37.406Z,9.40
2019-03-30T23:44:08.082Z,9.39
2019-03-30T23:46:39.181Z,9.41
2019-03-30T23:49:10.193Z,9.40
2019-03-30T23:51:41.678Z,9.45
2019-03-30T23:54:16.450Z,9.33
2019-03-30T23:56:47.105Z,9.30
2019-03-30T23:59:18.395Z,9.33
